createdAt,value
2022-12-13T00:01:57.603Z,15.73
2022-12-13T00:07:05.176Z,17.90
2022-12-13T00:12:12.611Z,20.43
2022-12-13T00:17:20.654Z,21.03
2022-12-13T00:22:28.555Z,15.73
2022-12-13T00:27:36.855Z,17.40
2022-12-13T00:32:44.215Z,16.40
2022-12-13T00:37:51.543Z,15.93
2022-12-13T00:42:59.192Z,15.10
2022-12-13T00:48:08.492Z,16.53
2022-12-13T00:53:16.005Z,16.97
2022-12-13T00:58:24.272Z,16.97
2022-12-13T01:03:33.408Z,17.60
2022-12-13T01:08:41.330Z,16.37
2022-12-13T01:13:49.371Z,13.40
2022-12-13T01:18:58.836Z,14.20
2022-12-13T01:24:09.319Z,17.67
2022-12-13T01:29:17.878Z,19.80
2022-12-13T01:34:26.178Z,15.77
2022-12-13T01:39:38.190Z,13.77
2022-12-13T01:45:05.265Z,12.40
2022-12-13T01:50:18.497Z,17.17
2022-12-13T01:55:26.556Z,13.63
2022-12-13T02:00:36.091Z,14.83
2022-12-13T02:06:05.052Z,16.00
2022-12-13T02:11:13.386Z,15.30
2022-12-13T02:16:43.731Z,15.27
2022-12-13T02:22:11.556Z,20.30
2022-12-13T02:27:30.592Z,16.00
2022-12-13T02:32:53.501Z,14.23
2022-12-13T02:38:24.431Z,11.37
2022-12-13T02:43:33.880Z,18.27
2022-12-13T02:48:41.517Z,12.33
2022-12-13T02:53:49.269Z,12.50
2022-12-13T02:58:56.621Z,16.70
2022-12-13T03:04:16.335Z,12.57
2022-12-13T03:09:30.698Z,14.17
2022-12-13T03:14:39.055Z,13.47
2022-12-13T03:19:46.563Z,14.60
2022-12-13T03:24:54.184Z,19.83
2022-12-13T03:30:02.855Z,14.63
2022-12-13T03:35:21.708Z,12.53
2022-12-13T03:40:22.098Z,15.83
2022-12-13T03:45:29.798Z,18.43
2022-12-13T03:50:37.131Z,15.73
2022-12-13T03:55:45.087Z,13.33
2022-12-13T04:00:53.113Z,14.47
2022-12-13T04:06:01.448Z,15.57
2022-12-13T04:11:27.025Z,16.20
2022-12-13T04:16:34.681Z,12.63
2022-12-13T04:21:42.725Z,20.67
2022-12-13T04:26:50.963Z,15.20
2022-12-13T04:31:58.988Z,14.27
2022-12-13T04:37:08.074Z,14.53
2022-12-13T04:42:15.752Z,13.97
2022-12-13T04:47:23.774Z,16.23
2022-12-13T04:52:31.149Z,16.63
2022-12-13T04:57:39.943Z,16.47
2022-12-13T05:02:48.038Z,13.10
2022-12-13T05:07:55.811Z,17.23
2022-12-13T05:13:03.531Z,12.60
2022-12-13T05:18:11.997Z,18.27
2022-12-13T05:23:22.360Z,14.50
2022-12-13T05:28:30.121Z,15.00
2022-12-13T05:33:38.762Z,14.43
2022-12-13T05:38:46.689Z,8.80
2022-12-13T05:43:54.196Z,18.40
2022-12-13T05:49:02.531Z,21.30
2022-12-13T05:54:10.524Z,18.57
2022-12-13T05:59:18.176Z,17.17
2022-12-13T06:04:25.542Z,18.13
2022-12-13T06:09:33.056Z,19.70
2022-12-13T06:14:42.179Z,21.70
2022-12-13T06:19:50.103Z,24.03
2022-12-13T06:24:57.377Z,22.13
2022-12-13T06:30:05.475Z,20.10
2022-12-13T06:35:28.420Z,13.53
2022-12-13T06:40:23.732Z,23.30
2022-12-13T06:45:31.178Z,24.80
2022-12-13T06:50:39.188Z,25.57
2022-12-13T06:55:47.215Z,24.57
2022-12-13T07:01:03.928Z,23.57
2022-12-13T07:06:17.118Z,22.70
2022-12-13T07:11:30.251Z,48.17
2022-12-13T07:16:37.724Z,31.80
2022-12-13T07:21:45.243Z,31.47
2022-12-13T07:26:53.234Z,29.10
2022-12-13T07:32:02.254Z,27.37
2022-12-13T07:37:30.309Z,43.40
2022-12-13T07:42:22.216Z,24.47
2022-12-13T07:47:33.387Z,29.37
2022-12-13T07:52:44.815Z,23.20
2022-12-13T07:57:54.770Z,34.20
2022-12-13T08:03:02.469Z,35.20
2022-12-13T08:08:11.978Z,30.53
2022-12-13T08:13:26.954Z,33.80
2022-12-13T08:18:35.136Z,25.90
2022-12-13T08:23:43.124Z,22.50
2022-12-13T08:28:51.088Z,22.03
2022-12-13T08:33:59.070Z,23.83
2022-12-13T08:39:07.403Z,22.23
2022-12-13T08:44:14.851Z,15.13
2022-12-13T08:49:22.388Z,23.37
2022-12-13T08:54:31.262Z,23.47
2022-12-13T08:59:39.250Z,22.63
2022-12-13T09:04:47.121Z,19.33
2022-12-13T09:09:55.324Z,21.20
2022-12-13T09:15:02.797Z,22.23
2022-12-13T09:20:28.616Z,16.03
2022-12-13T09:25:23.986Z,15.90
2022-12-13T09:30:32.152Z,18.20
2022-12-13T09:35:39.982Z,17.77
2022-12-13T09:40:49.471Z,20.03
2022-12-13T09:46:01.093Z,16.23
2022-12-13T09:51:26.301Z,20.33
2022-12-13T09:56:20.736Z,21.07
2022-12-13T10:01:28.577Z,20.57
2022-12-13T10:06:37.653Z,17.27
2022-12-13T10:11:54.169Z,17.23
2022-12-13T10:17:02.697Z,13.53
2022-12-13T10:22:15.684Z,13.60
2022-12-13T10:27:35.593Z,12.53
2022-12-13T10:33:01.233Z,15.57
2022-12-13T10:38:21.013Z,16.50
2022-12-13T10:43:31.681Z,13.43
2022-12-13T10:48:41.915Z,14.50
2022-12-13T10:53:58.338Z,16.33
2022-12-13T10:59:21.351Z,15.00
2022-12-13T11:04:35.533Z,16.27
2022-12-13T11:09:43.618Z,15.40
2022-12-13T11:15:07.531Z,13.73
2022-12-13T11:20:21.116Z,15.23
2022-12-13T11:25:31.854Z,12.70
2022-12-13T11:30:51.593Z,16.17
2022-12-13T11:36:27.524Z,15.90
2022-12-13T11:41:42.130Z,15.87
2022-12-13T11:46:59.678Z,19.53
2022-12-13T11:52:31.728Z,15.90
2022-12-13T11:57:59.622Z,13.47
2022-12-13T12:03:20.202Z,16.13
2022-12-13T12:08:45.523Z,15.90
2022-12-13T12:13:56.366Z,13.67
2022-12-13T12:19:05.182Z,17.03
2022-12-13T12:24:40.881Z,14.43
2022-12-13T12:30:22.525Z,14.50
2022-12-13T12:35:55.644Z,7.75
2022-12-13T12:41:26.181Z,11.67
2022-12-13T12:47:09.186Z,13.23
2022-12-13T12:52:21.452Z,10.07
2022-12-13T12:57:41.236Z,12.47
2022-12-13T13:03:23.246Z,13.53
2022-12-13T13:08:56.258Z,20.63
2022-12-13T13:14:16.806Z,10.43
2022-12-13T13:24:32.197Z,8.93
2022-12-13T13:29:43.643Z,9.27
2022-12-13T13:34:51.244Z,8.27
2022-12-13T13:40:03.984Z,12.90
2022-12-13T13:45:19.663Z,14.73
2022-12-13T13:50:40.021Z,11.10
2022-12-13T13:56:01.832Z,10.77
2022-12-13T14:01:23.259Z,8.23
2022-12-13T14:07:01.171Z,8.63
2022-12-13T14:12:44.213Z,9.17
2022-12-13T14:18:25.908Z,15.37
2022-12-13T14:29:33.424Z,15.73
2022-12-13T14:34:41.785Z,16.93
2022-12-13T14:39:49.394Z,16.43
2022-12-13T14:44:57.206Z,19.13
2022-12-13T14:50:06.779Z,15.00
2022-12-13T14:55:26.227Z,13.47
2022-12-13T15:00:37.173Z,15.30
2022-12-13T15:05:51.367Z,12.73
2022-12-13T15:11:03.067Z,22.27
2022-12-13T15:16:20.277Z,28.40
2022-12-13T15:21:29.052Z,26.80
2022-12-13T15:26:38.915Z,28.33
2022-12-13T15:31:48.903Z,28.07
2022-12-13T15:36:57.668Z,34.60
2022-12-13T15:42:07.072Z,26.90
2022-12-13T15:47:28.394Z,26.87
2022-12-13T15:52:32.078Z,33.17
2022-12-13T15:57:54.809Z,31.63
2022-12-13T16:03:08.541Z,39.50
2022-12-13T16:08:26.458Z,42.17
2022-12-13T16:13:37.023Z,42.03
2022-12-13T16:18:46.527Z,49.60
2022-12-13T16:23:54.472Z,53.40
2022-12-13T16:29:02.322Z,57.07
2022-12-13T16:34:11.213Z,58.63
2022-12-13T16:39:20.885Z,84.00
2022-12-13T16:44:32.298Z,81.07
2022-12-13T16:49:39.943Z,76.70
2022-12-13T16:54:49.001Z,60.60
2022-12-13T16:59:56.856Z,63.63
2022-12-13T17:05:06.447Z,62.30
2022-12-13T17:10:14.773Z,60.17
2022-12-13T17:15:22.626Z,67.63
2022-12-13T17:20:32.968Z,72.27
2022-12-13T17:25:41.103Z,67.47
2022-12-13T17:30:49.288Z,74.00
2022-12-13T17:36:03.461Z,79.73
2022-12-13T17:41:11.142Z,94.37
2022-12-13T17:46:19.616Z,83.13
2022-12-13T17:51:27.190Z,82.23
2022-12-13T17:56:35.087Z,98.07
2022-12-13T18:01:44.449Z,84.70
2022-12-13T18:06:53.287Z,80.73
2022-12-13T18:12:05.067Z,74.23
2022-12-13T18:17:12.675Z,72.77
2022-12-13T18:22:20.349Z,78.33
2022-12-13T18:27:28.336Z,77.27
2022-12-13T18:32:37.639Z,68.80
2022-12-13T18:37:45.427Z,69.70
2022-12-13T18:42:54.637Z,59.30
2022-12-13T18:48:04.108Z,58.90
2022-12-13T18:53:12.939Z,56.60
2022-12-13T18:58:21.072Z,53.07
2022-12-13T19:03:30.139Z,65.80
2022-12-13T19:08:40.296Z,74.60
2022-12-13T19:13:50.117Z,81.37
2022-12-13T19:19:01.504Z,77.10
2022-12-13T19:24:11.278Z,87.20
2022-12-13T19:29:22.378Z,88.40
2022-12-13T19:34:32.207Z,90.53
2022-12-13T19:39:40.983Z,80.60
2022-12-13T19:44:49.053Z,81.47
2022-12-13T19:49:57.890Z,82.33
2022-12-13T19:55:06.472Z,88.10
2022-12-13T20:00:15.320Z,80.73
2022-12-13T20:05:23.625Z,98.20
2022-12-13T20:10:34.219Z,127.87
2022-12-13T20:15:50.023Z,84.13
2022-12-13T20:21:12.439Z,76.50
2022-12-13T20:26:26.401Z,81.77
2022-12-13T20:31:35.364Z,100.80
2022-12-13T20:36:43.379Z,74.83
2022-12-13T20:41:51.303Z,85.23
2022-12-13T20:46:59.353Z,82.20
2022-12-13T20:52:06.878Z,71.67
2022-12-13T20:57:15.214Z,66.57
2022-12-13T21:02:23.798Z,73.70
2022-12-13T21:07:51.150Z,78.30
2022-12-13T21:13:00.504Z,72.62
2022-12-13T21:18:08.015Z,73.93
2022-12-13T21:23:15.514Z,83.80
2022-12-13T21:28:26.814Z,85.83
2022-12-13T21:33:35.162Z,101.53
2022-12-13T21:38:43.047Z,132.93
2022-12-13T21:43:50.862Z,165.87
2022-12-13T21:48:59.874Z,133.00
2022-12-13T21:54:07.769Z,135.30
2022-12-13T21:59:23.195Z,113.70
2022-12-13T22:04:30.740Z,93.00
2022-12-13T22:09:38.467Z,103.80
2022-12-13T22:14:47.083Z,90.03
2022-12-13T22:19:54.735Z,102.37
2022-12-13T22:25:02.364Z,98.87
2022-12-13T22:30:10.645Z,115.43
2022-12-13T22:35:18.063Z,110.50
2022-12-13T22:40:27.252Z,103.67
2022-12-13T22:45:34.716Z,111.53
2022-12-13T22:50:42.188Z,137.23
2022-12-13T22:55:49.830Z,123.80
2022-12-13T23:00:57.323Z,117.23
2022-12-13T23:06:10.406Z,116.27
2022-12-13T23:11:37.175Z,113.47
2022-12-13T23:16:47.178Z,97.30
2022-12-13T23:21:55.771Z,91.47
2022-12-13T23:27:03.830Z,88.20
2022-12-13T23:32:11.744Z,81.57
2022-12-13T23:37:20.563Z,92.53
2022-12-13T23:42:31.407Z,100.57
2022-12-13T23:47:41.656Z,88.23
2022-12-13T23:52:50.021Z,94.87
2022-12-13T23:57:57.470Z,98.93
